La Grande, Oregon
Current Conditions -  °F | °C
As of 6:35 PM on Wednesday 22 Oct 2014 (Local Time) from KLGD Reporting Station
Overcast Overcast  
Wind Chill: 57°   Ceiling: 9000
Heat Index: 57°   Visibility: 10mi
Dew Point: 28°   Wind: 15mph
Humidity: 33%   Direction: 180°S
Pressure: 29.87"   Gusts: 21mph
Location:  45.33°N, 118.09°W
Report Text: KLGD 230135Z AUTO 18013G18KT 10SM OVC090 14/M02 A2987 RMK AO1
Loading
Personal Weather Stations






























Interactive Weather Map New forecast layout! Learn more

10-Day Weather Forecast

Advertisements
Track Severe Weather on mobile